createdAt,value
2023-03-11T00:01:11.474Z,2.37
2023-03-11T00:03:40.893Z,2.38
2023-03-11T00:06:08.743Z,2.37
2023-03-11T00:08:36.389Z,2.33
2023-03-11T00:11:04.336Z,2.40
2023-03-11T00:13:32.240Z,2.33
2023-03-11T00:16:01.752Z,2.30
2023-03-11T00:18:31.483Z,2.29
2023-03-11T00:21:01.310Z,2.34
2023-03-11T00:23:29.822Z,2.48
2023-03-11T00:25:59.727Z,2.60
2023-03-11T00:28:27.510Z,2.47
2023-03-11T00:30:55.481Z,2.31
2023-03-11T00:33:23.446Z,2.33
2023-03-11T00:35:51.222Z,2.29
2023-03-11T00:38:20.327Z,2.41
2023-03-11T00:40:49.412Z,2.48
2023-03-11T00:43:17.849Z,2.39
2023-03-11T00:45:45.688Z,2.37
2023-03-11T00:48:14.384Z,2.25
2023-03-11T00:50:42.095Z,2.21
2023-03-11T00:53:10.944Z,2.31
2023-03-11T00:55:40.003Z,2.24
2023-03-11T00:58:09.450Z,2.29
2023-03-11T01:00:37.102Z,2.10
2023-03-11T01:03:05.244Z,2.02
2023-03-11T01:05:34.582Z,2.02
2023-03-11T01:08:02.625Z,1.98
2023-03-11T01:10:31.379Z,1.90
2023-03-11T01:13:00.411Z,1.94
2023-03-11T01:15:30.892Z,2.02
2023-03-11T01:17:58.944Z,1.84
2023-03-11T01:20:26.659Z,1.82
2023-03-11T01:22:54.307Z,1.98
2023-03-11T01:25:23.990Z,1.99
2023-03-11T01:27:51.843Z,1.78
2023-03-11T01:30:23.523Z,1.98
2023-03-11T01:32:52.171Z,1.94
2023-03-11T01:35:22.289Z,1.88
2023-03-11T01:37:50.372Z,1.62
2023-03-11T01:43:06.898Z,1.60
2023-03-11T01:45:41.360Z,1.61
2023-03-11T01:48:10.330Z,1.61
2023-03-11T01:50:41.381Z,1.55
2023-03-11T01:53:10.407Z,1.50
2023-03-11T01:55:38.477Z,1.51
2023-03-11T01:58:11.476Z,1.41
2023-03-11T02:00:40.702Z,1.51
2023-03-11T02:03:12.173Z,1.44
2023-03-11T02:05:41.147Z,1.57
2023-03-11T02:08:09.485Z,1.59
2023-03-11T02:10:38.921Z,1.57
2023-03-11T02:13:06.683Z,1.59
2023-03-11T02:15:34.358Z,1.38
2023-03-11T02:18:05.983Z,1.61
2023-03-11T02:20:43.793Z,1.43
2023-03-11T02:23:14.178Z,1.43
2023-03-11T02:25:47.015Z,1.47
2023-03-11T02:28:18.176Z,1.36
2023-03-11T02:30:46.733Z,1.23
2023-03-11T02:33:16.644Z,1.13
2023-03-11T02:35:44.381Z,1.10
2023-03-11T02:38:12.108Z,1.25
2023-03-11T02:40:48.291Z,1.21
2023-03-11T02:43:20.793Z,1.16
2023-03-11T02:45:49.524Z,1.06
2023-03-11T02:48:17.997Z,1.03
2023-03-11T02:50:47.711Z,1.06
2023-03-11T02:53:15.939Z,1.03
2023-03-11T02:55:43.604Z,1.04
2023-03-11T02:58:11.260Z,0.94
2023-03-11T03:00:40.289Z,1.02
2023-03-11T03:03:08.732Z,0.98
2023-03-11T03:05:36.447Z,0.92
2023-03-11T03:08:04.457Z,0.96
2023-03-11T03:10:32.228Z,0.97
2023-03-11T03:13:00.067Z,1.00
2023-03-11T03:15:27.984Z,0.85
2023-03-11T03:17:57.298Z,0.94
2023-03-11T03:20:26.486Z,0.98
2023-03-11T03:22:54.186Z,0.77
2023-03-11T03:25:22.336Z,0.91
2023-03-11T03:27:50.410Z,1.00
2023-03-11T03:30:18.087Z,0.84
2023-03-11T03:32:46.012Z,0.91
2023-03-11T03:35:15.187Z,0.80
2023-03-11T03:37:42.858Z,0.71
2023-03-11T03:40:11.787Z,0.71
2023-03-11T03:42:40.171Z,0.78
2023-03-11T03:45:10.037Z,1.07
2023-03-11T03:47:37.870Z,1.09
2023-03-11T03:50:06.483Z,0.97
2023-03-11T03:52:36.306Z,0.86
2023-03-11T03:55:04.964Z,0.90
2023-03-11T03:57:32.767Z,0.80
2023-03-11T04:00:00.449Z,0.98
2023-03-11T04:02:28.569Z,0.80
2023-03-11T04:04:56.800Z,0.76
2023-03-11T04:07:24.531Z,0.74
2023-03-11T04:09:53.596Z,0.68
2023-03-11T04:12:21.265Z,0.64
2023-03-11T04:14:48.929Z,0.63
2023-03-11T04:17:21.731Z,0.59
2023-03-11T04:19:49.500Z,0.73
2023-03-11T04:22:17.229Z,0.68
2023-03-11T04:24:44.934Z,0.61
2023-03-11T04:27:14.125Z,0.51
2023-03-11T04:29:41.814Z,0.53
2023-03-11T04:32:09.517Z,0.54
2023-03-11T04:34:37.425Z,0.54
2023-03-11T04:37:05.340Z,0.61
2023-03-11T04:39:33.023Z,0.60
2023-03-11T04:42:03.537Z,0.66
2023-03-11T04:44:32.981Z,0.57
2023-03-11T04:47:00.677Z,0.47
2023-03-11T04:49:28.673Z,0.41
2023-03-11T04:51:56.400Z,0.51
2023-03-11T04:54:24.020Z,0.42
2023-03-11T04:56:51.622Z,0.50
2023-03-11T04:59:19.396Z,0.46
2023-03-11T05:01:48.457Z,0.42
2023-03-11T05:04:16.815Z,0.56
2023-03-11T05:06:44.648Z,0.33
2023-03-11T05:09:12.408Z,0.38
2023-03-11T05:11:40.107Z,0.23
2023-03-11T05:14:07.802Z,0.34
2023-03-11T05:16:35.416Z,0.25
2023-03-11T05:19:24.776Z,0.19
2023-03-11T05:21:52.664Z,0.16
2023-03-11T05:24:20.348Z,0.13
2023-03-11T05:26:48.649Z,0.22
2023-03-11T05:29:16.300Z,0.21
2023-03-11T05:31:43.970Z,0.21
2023-03-11T05:34:13.118Z,0.20
2023-03-11T05:36:40.991Z,0.27
2023-03-11T05:39:08.913Z,0.20
2023-03-11T05:41:36.549Z,0.25
2023-03-11T05:44:04.363Z,0.16
2023-03-11T05:46:32.275Z,0.20
2023-03-11T05:49:00.915Z,0.12
2023-03-11T05:51:30.153Z,0.05
2023-03-11T05:53:58.693Z,0.21
2023-03-11T05:56:26.462Z,0.19
2023-03-11T05:58:54.209Z,0.26
2023-03-11T06:01:21.857Z,0.29
2023-03-11T06:03:49.722Z,0.22
2023-03-11T06:06:17.744Z,0.18
2023-03-11T06:08:49.869Z,0.28
2023-03-11T06:11:18.154Z,0.31
2023-03-11T06:13:45.905Z,0.16
2023-03-11T06:16:14.187Z,0.19
2023-03-11T06:18:42.305Z,0.18
2023-03-11T06:21:17.046Z,0.11
2023-03-11T06:23:46.334Z,0.22
2023-03-11T06:26:16.494Z,0.25
2023-03-11T06:28:44.339Z,0.32
2023-03-11T06:31:15.752Z,0.25
2023-03-11T06:33:43.697Z,0.36
2023-03-11T06:36:14.403Z,0.36
2023-03-11T06:38:43.183Z,0.39
2023-03-11T06:41:12.408Z,0.39
2023-03-11T06:43:40.687Z,0.50
2023-03-11T06:46:12.844Z,0.55
2023-03-11T06:48:40.508Z,0.58
2023-03-11T06:51:08.385Z,0.72
2023-03-11T06:53:36.039Z,0.82
2023-03-11T06:56:06.139Z,0.94
2023-03-11T06:58:37.209Z,0.82
2023-03-11T07:01:07.711Z,0.98
2023-03-11T07:03:35.934Z,1.02
2023-03-11T07:06:06.243Z,1.05
2023-03-11T07:08:34.347Z,1.08
2023-03-11T07:11:05.677Z,1.09
2023-03-11T07:13:35.302Z,1.17
2023-03-11T07:16:04.999Z,1.23
2023-03-11T07:18:33.032Z,1.27
2023-03-11T07:21:02.694Z,1.43
2023-03-11T07:23:30.781Z,1.41
2023-03-11T07:25:58.580Z,1.58
2023-03-11T07:28:27.747Z,1.48
2023-03-11T07:30:57.667Z,1.52
2023-03-11T07:33:25.643Z,1.48
2023-03-11T07:35:53.632Z,1.71
2023-03-11T07:38:21.430Z,1.73
2023-03-11T07:40:49.197Z,2.00
2023-03-11T07:43:17.394Z,1.94
2023-03-11T07:45:45.099Z,1.82
2023-03-11T07:48:14.059Z,2.02
2023-03-11T07:50:41.726Z,1.96
2023-03-11T07:53:11.892Z,1.88
2023-03-11T07:55:39.522Z,1.99
2023-03-11T07:58:07.247Z,2.17
2023-03-11T08:00:34.994Z,2.59
2023-03-11T08:03:02.695Z,3.28
2023-03-11T08:05:34.619Z,3.83
2023-03-11T08:08:02.336Z,4.24
2023-03-11T08:10:30.176Z,4.40
2023-03-11T08:12:58.140Z,5.08
2023-03-11T08:15:26.791Z,5.45
2023-03-11T08:17:54.494Z,5.20
2023-03-11T08:20:22.266Z,5.14
2023-03-11T08:22:57.905Z,5.23
2023-03-11T08:25:25.951Z,6.11
2023-03-11T08:27:53.658Z,6.54
2023-03-11T08:30:21.636Z,7.02
2023-03-11T08:32:50.174Z,6.88
2023-03-11T08:35:18.643Z,6.42
2023-03-11T08:37:46.520Z,6.86
2023-03-11T08:40:17.012Z,7.11
2023-03-11T08:42:44.662Z,6.96
2023-03-11T08:45:13.425Z,6.72
2023-03-11T08:47:41.252Z,6.07
2023-03-11T08:50:12.937Z,5.99
2023-03-11T08:52:40.577Z,6.65
2023-03-11T08:55:11.219Z,6.25
2023-03-11T08:57:40.514Z,5.47
2023-03-11T09:00:12.689Z,4.65
2023-03-11T09:02:41.647Z,4.26
2023-03-11T09:05:10.070Z,4.64
2023-03-11T09:07:37.931Z,4.71
2023-03-11T09:10:06.932Z,5.54
2023-03-11T09:12:34.629Z,6.50
2023-03-11T09:15:03.804Z,6.59
2023-03-11T09:17:31.388Z,7.60
2023-03-11T09:19:59.180Z,7.50
2023-03-11T09:22:27.299Z,7.17
2023-03-11T09:24:55.145Z,5.93
2023-03-11T09:27:22.857Z,6.80
2023-03-11T09:29:50.668Z,6.63
2023-03-11T09:32:19.657Z,7.16
2023-03-11T09:34:47.345Z,7.54
2023-03-11T09:37:15.229Z,8.21
2023-03-11T09:39:42.850Z,8.03
2023-03-11T09:42:20.750Z,8.83
2023-03-11T09:44:58.946Z,9.85
2023-03-11T09:47:39.514Z,8.25
2023-03-11T09:50:25.676Z,8.41
2023-03-11T09:53:04.111Z,9.01
2023-03-11T09:55:37.697Z,7.71
2023-03-11T09:58:13.058Z,8.22
2023-03-11T10:00:41.260Z,7.70
2023-03-11T10:03:26.103Z,7.44
2023-03-11T10:05:59.012Z,6.72
2023-03-11T10:08:34.089Z,7.06
2023-03-11T10:11:13.908Z,7.06
2023-03-11T10:13:48.252Z,6.95
2023-03-11T10:16:22.749Z,6.17
2023-03-11T10:19:01.158Z,5.67
2023-03-11T10:21:45.335Z,6.80
2023-03-11T10:24:32.932Z,8.72
2023-03-11T10:27:04.360Z,8.42
2023-03-11T10:29:46.632Z,7.79
2023-03-11T10:32:19.845Z,8.05
2023-03-11T10:34:55.027Z,7.90
2023-03-11T10:37:33.180Z,7.88
2023-03-11T10:40:22.564Z,8.66
2023-03-11T10:42:53.293Z,7.79
2023-03-11T10:45:23.479Z,8.47
2023-03-11T10:47:51.369Z,8.18
2023-03-11T10:50:21.568Z,8.32
2023-03-11T10:53:08.866Z,9.43
2023-03-11T10:55:45.640Z,9.04
2023-03-11T10:58:15.297Z,8.37
2023-03-11T11:00:43.405Z,8.15
2023-03-11T11:03:21.815Z,9.62
2023-03-11T11:06:00.867Z,9.26
2023-03-11T11:08:29.215Z,8.78
2023-03-11T11:10:59.569Z,9.97
2023-03-11T11:13:30.207Z,8.47
2023-03-11T11:16:00.737Z,8.12
2023-03-11T11:18:32.178Z,7.71
2023-03-11T11:21:04.702Z,7.32
2023-03-11T11:23:36.063Z,8.05
2023-03-11T11:26:06.071Z,8.77
2023-03-11T11:28:34.814Z,9.66
2023-03-11T11:31:04.702Z,9.64
2023-03-11T11:33:34.185Z,9.99
2023-03-11T11:36:13.968Z,10.52
2023-03-11T11:38:42.274Z,10.32
2023-03-11T11:41:16.068Z,10.32
2023-03-11T11:43:50.607Z,10.54
2023-03-11T11:46:23.823Z,9.77
2023-03-11T11:49:01.037Z,10.32
2023-03-11T11:51:34.890Z,10.38
2023-03-11T11:54:07.166Z,11.05
2023-03-11T11:56:35.482Z,10.75
2023-03-11T11:59:03.288Z,9.58
2023-03-11T12:01:41.775Z,9.27
2023-03-11T12:04:31.220Z,10.41
2023-03-11T12:07:11.963Z,10.19
2023-03-11T12:09:48.980Z,9.18
2023-03-11T12:12:26.769Z,9.56
2023-03-11T12:15:01.564Z,8.85
2023-03-11T12:17:32.725Z,8.41
2023-03-11T12:20:04.610Z,9.05
2023-03-11T12:23:03.397Z,9.06
2023-03-11T12:25:37.797Z,8.51
2023-03-11T12:28:18.793Z,7.62
2023-03-11T12:30:50.405Z,8.57
2023-03-11T12:33:24.178Z,8.60
2023-03-11T12:35:56.055Z,7.91
2023-03-11T12:38:32.341Z,7.34
2023-03-11T12:41:08.335Z,7.54
2023-03-11T12:44:02.535Z,7.86
2023-03-11T12:47:10.225Z,7.95
2023-03-11T12:49:40.036Z,8.39
2023-03-11T12:52:20.991Z,9.79
2023-03-11T12:55:11.411Z,10.03
2023-03-11T12:57:52.587Z,9.70
2023-03-11T13:00:30.518Z,10.06
2023-03-11T13:03:33.428Z,10.59
2023-03-11T13:06:15.392Z,8.66
2023-03-11T13:08:48.433Z,10.33
2023-03-11T13:11:37.251Z,10.77
2023-03-11T13:14:30.180Z,10.82
2023-03-11T13:17:18.154Z,9.47
2023-03-11T13:19:51.360Z,9.83
2023-03-11T13:22:45.331Z,9.61
2023-03-11T13:25:32.160Z,8.79
2023-03-11T13:28:15.283Z,8.67
2023-03-11T13:30:51.505Z,7.86
2023-03-11T13:33:36.597Z,7.63
2023-03-11T13:36:15.588Z,7.44
2023-03-11T13:39:24.907Z,7.32
2023-03-11T13:41:52.847Z,7.63
2023-03-11T13:44:30.360Z,7.38
2023-03-11T13:47:03.852Z,8.05
2023-03-11T13:49:39.545Z,8.16
2023-03-11T13:52:10.632Z,8.51
2023-03-11T13:54:46.584Z,7.39
2023-03-11T13:57:25.044Z,7.57
2023-03-11T13:59:55.342Z,8.17
2023-03-11T14:02:25.421Z,7.73
2023-03-11T14:04:57.125Z,7.56
2023-03-11T14:07:31.681Z,7.45
2023-03-11T14:10:18.202Z,6.85
2023-03-11T14:12:46.072Z,7.75
2023-03-11T14:15:20.311Z,8.31
2023-03-11T14:17:48.883Z,8.39
2023-03-11T14:20:20.127Z,7.97
2023-03-11T14:22:50.092Z,8.02
2023-03-11T14:25:20.642Z,7.95
2023-03-11T14:27:53.981Z,8.34
2023-03-11T14:30:26.994Z,7.80
2023-03-11T14:33:00.578Z,7.56
2023-03-11T14:35:29.068Z,6.76
2023-03-11T14:37:56.994Z,7.78
2023-03-11T14:40:27.703Z,7.77
2023-03-11T14:42:58.750Z,7.33
2023-03-11T14:45:30.768Z,7.52
2023-03-11T14:48:04.046Z,7.09
2023-03-11T14:50:35.166Z,7.37
2023-03-11T14:53:07.512Z,7.44
2023-03-11T14:55:41.055Z,6.96
2023-03-11T14:58:17.428Z,6.79
2023-03-11T15:00:50.308Z,6.88
2023-03-11T15:03:24.556Z,6.65
2023-03-11T15:05:55.854Z,6.61
2023-03-11T15:08:28.062Z,6.63
2023-03-11T15:11:04.484Z,6.89
2023-03-11T15:13:32.379Z,6.66
2023-03-11T15:16:03.080Z,7.06
2023-03-11T15:18:33.450Z,7.14
2023-03-11T15:21:07.862Z,7.47
2023-03-11T15:23:37.089Z,7.11
2023-03-11T15:26:06.699Z,7.77
2023-03-11T15:28:37.187Z,7.41
2023-03-11T15:31:31.346Z,7.58
2023-03-11T15:34:10.434Z,7.72
2023-03-11T15:36:40.269Z,7.11
2023-03-11T15:39:14.534Z,7.45
2023-03-11T15:41:42.439Z,6.97
2023-03-11T15:44:24.654Z,6.61
2023-03-11T15:46:54.100Z,6.61
2023-03-11T15:49:22.560Z,6.74
2023-03-11T15:51:50.292Z,7.03
2023-03-11T15:54:17.912Z,7.04
2023-03-11T15:56:46.366Z,7.48
2023-03-11T15:59:16.171Z,7.36
2023-03-11T16:01:43.985Z,6.09
2023-03-11T16:04:17.745Z,6.59
2023-03-11T16:06:49.516Z,6.66
2023-03-11T16:09:22.609Z,7.08
2023-03-11T16:11:50.314Z,6.73
2023-03-11T16:14:19.955Z,6.46
2023-03-11T16:16:48.248Z,6.87
2023-03-11T16:19:17.235Z,6.61
2023-03-11T16:21:49.401Z,5.89
2023-03-11T16:24:20.855Z,6.02
2023-03-11T16:26:49.158Z,5.73
2023-03-11T16:29:19.586Z,6.08
2023-03-11T16:31:49.190Z,5.42
2023-03-11T16:34:19.048Z,5.63
2023-03-11T16:36:46.675Z,5.72
2023-03-11T16:39:14.771Z,5.45
2023-03-11T16:41:44.130Z,5.56
2023-03-11T16:44:12.682Z,5.67
2023-03-11T16:46:40.422Z,5.80
2023-03-11T16:49:08.114Z,5.88
2023-03-11T16:51:37.114Z,5.56
2023-03-11T16:54:04.877Z,5.38
2023-03-11T16:56:32.551Z,4.80
2023-03-11T16:59:01.195Z,4.84
2023-03-11T17:01:28.869Z,4.73
2023-03-11T17:03:56.535Z,5.09
2023-03-11T17:06:24.220Z,4.72
2023-03-11T17:08:53.322Z,5.14
2023-03-11T17:11:22.817Z,5.24
2023-03-11T17:13:51.812Z,4.92
2023-03-11T17:16:19.468Z,4.82
2023-03-11T17:18:47.371Z,4.34
2023-03-11T17:21:16.614Z,4.68
2023-03-11T17:23:44.972Z,4.81
2023-03-11T17:26:16.390Z,4.65
2023-03-11T17:28:44.936Z,4.81
2023-03-11T17:31:13.612Z,4.29
2023-03-11T17:33:41.616Z,4.83
2023-03-11T17:36:13.568Z,5.05
2023-03-11T17:38:41.200Z,4.84
2023-03-11T17:41:09.724Z,4.82
2023-03-11T17:43:38.690Z,4.59
2023-03-11T17:46:08.296Z,4.35
2023-03-11T17:48:35.938Z,4.27
2023-03-11T17:51:06.990Z,4.22
2023-03-11T17:53:35.811Z,3.79
2023-03-11T17:56:04.009Z,3.35
2023-03-11T17:58:31.917Z,3.12
2023-03-11T18:01:04.117Z,3.01
2023-03-11T18:03:31.780Z,2.94
2023-03-11T18:06:01.557Z,2.83
2023-03-11T18:08:30.195Z,2.86
2023-03-11T18:11:00.563Z,2.76
2023-03-11T18:13:28.381Z,2.74
2023-03-11T18:16:01.911Z,2.48
2023-03-11T18:18:30.552Z,2.34
2023-03-11T18:21:02.127Z,2.36
2023-03-11T18:23:32.831Z,2.37
2023-03-11T18:26:01.223Z,2.32
2023-03-11T18:28:29.580Z,2.17
2023-03-11T18:30:57.553Z,1.68
2023-03-11T18:33:26.893Z,1.72
2023-03-11T18:35:54.817Z,1.74
2023-03-11T18:38:22.540Z,1.75
2023-03-11T18:40:57.717Z,1.55
2023-03-11T18:43:25.519Z,1.50
2023-03-11T18:45:53.223Z,1.40
2023-03-11T18:48:21.294Z,1.28
2023-03-11T18:50:53.850Z,1.20
2023-03-11T18:53:24.863Z,1.13
2023-03-11T18:55:53.584Z,1.20
2023-03-11T18:58:21.312Z,1.12
2023-03-11T19:00:49.134Z,0.98
2023-03-11T19:03:17.255Z,0.97
2023-03-11T19:05:50.623Z,0.95
2023-03-11T19:08:20.385Z,0.75
2023-03-11T19:10:48.173Z,0.67
2023-03-11T19:13:19.246Z,0.82
2023-03-11T19:15:47.710Z,0.66
2023-03-11T19:18:16.098Z,0.63
2023-03-11T19:20:44.407Z,0.40
2023-03-11T19:23:12.242Z,0.40
2023-03-11T19:25:50.627Z,0.26
2023-03-11T19:28:25.382Z,0.22
2023-03-11T19:30:54.592Z,0.37
2023-03-11T19:33:23.259Z,0.36
2023-03-11T19:35:53.466Z,0.22
2023-03-11T19:38:21.681Z,0.18
2023-03-11T19:40:54.268Z,0.12
2023-03-11T19:43:23.894Z,0.12
2023-03-11T19:45:51.812Z,0.03
2023-03-11T19:48:20.344Z,0.04
2023-03-11T19:50:49.634Z,0.08
2023-03-11T19:53:17.940Z,-0.10
2023-03-11T19:55:46.309Z,-0.07
2023-03-11T19:58:16.002Z,-0.20
2023-03-11T20:00:45.422Z,-0.31
2023-03-11T20:03:14.734Z,-0.26
2023-03-11T20:05:44.878Z,-0.13
2023-03-11T20:08:18.316Z,-0.30
2023-03-11T20:10:48.906Z,-0.17
2023-03-11T20:13:20.200Z,-0.25
2023-03-11T20:15:48.927Z,-0.23
2023-03-11T20:18:18.081Z,-0.35
2023-03-11T20:20:46.917Z,-0.33
2023-03-11T20:23:15.752Z,-0.28
2023-03-11T20:25:43.894Z,-0.45
2023-03-11T20:28:11.779Z,-0.52
2023-03-11T20:30:41.331Z,-0.39
2023-03-11T20:33:09.640Z,-0.41
2023-03-11T20:35:37.572Z,-0.50
2023-03-11T20:38:05.556Z,-0.51
2023-03-11T20:40:33.542Z,-0.31
2023-03-11T20:43:02.768Z,-0.55
2023-03-11T20:45:30.928Z,-0.66
2023-03-11T20:48:00.184Z,-0.69
2023-03-11T20:50:27.972Z,-0.63
2023-03-11T20:52:55.624Z,-0.55
2023-03-11T20:55:23.739Z,-0.58
2023-03-11T20:57:53.652Z,-0.69
2023-03-11T21:00:22.074Z,-0.63
2023-03-11T21:02:50.298Z,-0.69
2023-03-11T21:05:19.914Z,-0.80
2023-03-11T21:07:49.272Z,-0.84
2023-03-11T21:10:17.168Z,-0.88
2023-03-11T21:12:45.046Z,-0.85
2023-03-11T21:15:13.300Z,-0.76
2023-03-11T21:17:41.590Z,-0.88
2023-03-11T21:20:11.277Z,-0.85
2023-03-11T21:22:40.596Z,-0.90
2023-03-11T21:25:09.136Z,-0.93
2023-03-11T21:27:37.154Z,-1.00
2023-03-11T21:30:05.907Z,-0.88
2023-03-11T21:32:33.810Z,-0.97
2023-03-11T21:35:02.444Z,-0.95
2023-03-11T21:37:30.397Z,-0.98
2023-03-11T21:39:59.607Z,-1.01
2023-03-11T21:42:30.547Z,-0.95
2023-03-11T21:44:58.499Z,-1.00
2023-03-11T21:47:26.384Z,-1.00
2023-03-11T21:49:54.106Z,-1.10
2023-03-11T21:52:21.761Z,-1.08
2023-03-11T21:54:49.607Z,-1.10
2023-03-11T21:57:18.902Z,-1.04
2023-03-11T21:59:46.782Z,-0.97
2023-03-11T22:02:16.537Z,-1.16
2023-03-11T22:04:44.923Z,-1.15
2023-03-11T22:07:12.894Z,-1.14
2023-03-11T22:09:41.011Z,-1.16
2023-03-11T22:12:09.184Z,-1.03
2023-03-11T22:14:38.462Z,-1.05
2023-03-11T22:17:06.360Z,-1.09
2023-03-11T22:19:34.162Z,-1.21
2023-03-11T22:22:01.848Z,-1.26
2023-03-11T22:24:29.532Z,-1.19
2023-03-11T22:26:57.553Z,-1.23
2023-03-11T22:29:25.194Z,-1.22
2023-03-11T22:31:54.256Z,-1.22
2023-03-11T22:34:21.937Z,-1.21
2023-03-11T22:36:49.857Z,-1.26
2023-03-11T22:39:17.599Z,-1.28
2023-03-11T22:41:45.499Z,-1.17
2023-03-11T22:44:13.112Z,-1.31
2023-03-11T22:46:41.160Z,-1.41
2023-03-11T22:49:10.431Z,-1.31
2023-03-11T22:51:38.219Z,-1.30
2023-03-11T22:54:05.939Z,-1.34
2023-03-11T22:56:33.631Z,-1.32
2023-03-11T22:59:01.322Z,-1.35
2023-03-11T23:01:29.104Z,-1.35
2023-03-11T23:03:56.928Z,-1.48
2023-03-11T23:06:26.144Z,-1.40
2023-03-11T23:08:54.533Z,-1.36
2023-03-11T23:11:23.265Z,-1.48
2023-03-11T23:13:52.104Z,-1.52
2023-03-11T23:16:22.321Z,-1.55
2023-03-11T23:18:53.478Z,-1.51
2023-03-11T23:21:23.164Z,-1.60
2023-03-11T23:23:52.612Z,-1.54
2023-03-11T23:26:21.777Z,-1.55
2023-03-11T23:28:51.158Z,-1.57
2023-03-11T23:31:20.577Z,-1.64
2023-03-11T23:33:48.778Z,-1.60
2023-03-11T23:36:18.617Z,-1.50
2023-03-11T23:38:46.510Z,-1.58
2023-03-11T23:41:17.716Z,-1.53
2023-03-11T23:43:45.590Z,-1.59
2023-03-11T23:46:13.756Z,-1.67
2023-03-11T23:48:41.803Z,-1.72
2023-03-11T23:51:09.696Z,-1.75
2023-03-11T23:53:37.970Z,-1.79
2023-03-11T23:56:10.773Z,-1.77
2023-03-11T23:58:39.801Z,-1.81
